Time;durP1;ratioP1;P1;durP2;ratioP2;P2;SDS_P1;SDS_P2;PMS_P1;PMS_P2;Temp;Humidity;BMP_temperature;BMP_pressure;BME280_temperature;BME280_humidity;BME280_pressure;Samples;Min_cycle;Max_cycle;Signal;HPM_P1;HPM_P2
2021/01/09 00:01:02;;;;;;;8.23;6.38;;;1.50;1.00;;;;;;4946083;28;20216;-71
2021/01/09 00:03:31;;;;;;;9.13;5.60;;;1.70;1.00;;;;;;4945389;28;20240;-70
2021/01/09 00:05:58;;;;;;;8.90;5.95;;;1.60;99.90;;;;;;4951077;28;20211;-71
2021/01/09 00:08:25;;;;;;;5.75;4.90;;;1.40;99.90;;;;;;4946669;28;20210;-69
2021/01/09 00:10:52;;;;;;;8.65;5.43;;;1.50;1.00;;;;;;4947552;28;20581;-70
2021/01/09 00:13:19;;;;;;;7.32;6.00;;;1.50;1.00;;;;;;4956960;28;20288;-69
2021/01/09 00:15:47;;;;;;;6.18;5.55;;;1.70;99.90;;;;;;4951789;28;20750;-69
2021/01/09 00:18:14;;;;;;;8.75;5.35;;;1.60;1.00;;;;;;4947725;28;20226;-71
2021/01/09 00:20:42;;;;;;;9.55;6.65;;;1.50;1.00;;;;;;4944351;28;20280;-69
2021/01/09 00:23:09;;;;;;;7.88;5.13;;;1.40;99.90;;;;;;4950370;28;20231;-69
2021/01/09 00:25:36;;;;;;;6.45;5.57;;;1.30;1.00;;;;;;4947732;28;20650;-71
2021/01/09 00:28:04;;;;;;;7.80;5.00;;;1.40;1.00;;;;;;4950379;28;20225;-70
2021/01/09 00:30:31;;;;;;;8.32;5.03;;;1.50;99.90;;;;;;4953282;28;20954;-69
2021/01/09 00:32:59;;;;;;;6.03;5.25;;;1.50;99.90;;;;;;4947194;28;20238;-71
2021/01/09 00:35:26;;;;;;;5.97;5.35;;;1.50;99.90;;;;;;4946255;28;20223;-70
2021/01/09 00:37:54;;;;;;;7.75;5.90;;;1.60;99.90;;;;;;4951113;28;20832;-72
2021/01/09 00:40:21;;;;;;;9.27;5.95;;;1.70;99.90;;;;;;4952051;28;20216;-71
2021/01/09 00:42:48;;;;;;;8.05;6.53;;;1.70;99.90;;;;;;4950091;28;20247;-70
2021/01/09 00:45:16;;;;;;;9.55;6.75;;;1.70;1.00;;;;;;4948239;28;20302;-71
2021/01/09 00:47:43;;;;;;;8.88;6.22;;;1.60;99.90;;;;;;4945385;28;20207;-68
2021/01/09 00:50:14;;;;;;;5.55;5.05;;;1.60;1.00;;;;;;4948477;28;20206;-70
2021/01/09 00:52:42;;;;;;;9.52;5.70;;;1.60;99.90;;;;;;4952720;28;20245;-70
2021/01/09 00:55:13;;;;;;;7.28;6.00;;;1.70;81.50;;;;;;4954561;28;20714;-71
2021/01/09 00:57:40;;;;;;;7.80;6.40;;;1.80;99.90;;;;;;4955113;28;20230;-71
2021/01/09 01:00:09;;;;;;;7.60;5.60;;;1.80;99.90;;;;;;4948369;28;20223;-71
2021/01/09 01:02:36;;;;;;;7.95;5.40;;;1.60;99.90;;;;;;4944374;28;20224;-70
2021/01/09 01:05:04;;;;;;;7.75;6.38;;;1.60;1.00;;;;;;4947589;29;20274;-69
2021/01/09 01:07:34;;;;;;;6.80;5.75;;;1.70;99.90;;;;;;4950166;28;20219;-69
2021/01/09 01:10:02;;;;;;;5.90;5.30;;;1.70;99.90;;;;;;4946414;28;20219;-70
2021/01/09 01:12:30;;;;;;;7.55;5.97;;;1.70;1.00;;;;;;4946968;28;20219;-70
2021/01/09 01:14:58;;;;;;;9.40;6.80;;;1.70;1.00;;;;;;4953981;28;20225;-71
2021/01/09 01:17:25;;;;;;;9.05;6.00;;;1.70;1.00;;;;;;4947322;28;20705;-72
2021/01/09 01:19:52;;;;;;;7.82;6.38;;;1.80;99.90;;;;;;4947147;28;20284;-71
2021/01/09 01:22:19;;;;;;;8.18;5.53;;;1.90;1.00;;;;;;4946827;28;20215;-72
2021/01/09 01:24:46;;;;;;;7.75;5.70;;;1.90;99.90;;;;;;4944951;28;20225;-71
2021/01/09 01:27:13;;;;;;;9.32;6.43;;;2.00;1.00;;;;;;4946539;28;20208;-71
2021/01/09 01:29:41;;;;;;;9.60;6.55;;;2.10;99.90;;;;;;4949910;28;20214;-70
2021/01/09 01:32:08;;;;;;;7.90;6.00;;;2.10;99.90;;;;;;4947873;28;20214;-72
2021/01/09 01:34:35;;;;;;;8.20;6.68;;;2.10;99.90;;;;;;4945641;28;20228;-72
2021/01/09 01:37:02;;;;;;;7.18;5.60;;;2.20;99.90;;;;;;4945719;28;20216;-70
2021/01/09 01:39:29;;;;;;;9.50;6.07;;;2.20;99.90;;;;;;4946909;28;20223;-73
2021/01/09 01:41:57;;;;;;;8.48;6.78;;;2.30;1.00;;;;;;4943482;28;20938;-70
2021/01/09 01:44:24;;;;;;;9.00;6.55;;;2.30;1.00;;;;;;4948703;28;20230;-71
2021/01/09 01:46:52;;;;;;;5.88;5.22;;;2.40;99.90;;;;;;4956784;28;20214;-72
2021/01/09 01:49:20;;;;;;;7.63;5.40;;;2.40;99.90;;;;;;4947859;28;20223;-71
2021/01/09 01:51:49;;;;;;;7.40;6.05;;;2.40;99.90;;;;;;4957589;28;20213;-71
2021/01/09 01:54:16;;;;;;;5.93;5.32;;;2.50;99.90;;;;;;4944583;28;20741;-71
2021/01/09 01:56:43;;;;;;;8.00;6.18;;;2.50;99.90;;;;;;4951493;28;20591;-71
2021/01/09 01:59:13;;;;;;;6.22;5.63;;;2.50;15.90;;;;;;4954001;28;20214;-70
2021/01/09 02:01:43;;;;;;;8.25;6.20;;;2.50;73.20;;;;;;4959513;28;20235;-70
2021/01/09 02:04:11;;;;;;;7.68;5.18;;;2.50;99.90;;;;;;4946994;28;20594;-70
2021/01/09 02:06:40;;;;;;;6.78;5.60;;;2.50;99.90;;;;;;4944604;28;20632;-71
2021/01/09 02:09:12;;;;;;;7.38;6.10;;;2.50;1.00;;;;;;4957636;28;20204;-71
2021/01/09 02:11:47;;;;;;;8.52;5.25;;;2.50;1.00;;;;;;4953643;28;20223;-72
2021/01/09 02:14:20;;;;;;;7.82;6.05;;;2.50;1.00;;;;;;4950219;28;20244;-71
2021/01/09 02:16:49;;;;;;;8.93;5.53;;;2.50;1.00;;;;;;4955746;28;20264;-71
2021/01/09 02:19:21;;;;;;;9.13;6.25;;;2.50;1.00;;;;;;4946898;28;20211;-72
2021/01/09 02:21:51;;;;;;;5.93;5.22;;;2.60;1.00;;;;;;4953985;28;20239;-70
2021/01/09 02:24:19;;;;;;;7.63;6.45;;;2.60;1.00;;;;;;4949946;28;20658;-71
2021/01/09 02:26:48;;;;;;;7.22;6.10;;;2.60;1.00;;;;;;4949947;28;20211;-71
2021/01/09 02:29:15;;;;;;;6.47;5.22;;;2.60;1.00;;;;;;4958930;28;20755;-70
2021/01/09 02:31:49;;;;;;;9.02;6.55;;;2.60;1.00;;;;;;4947970;28;20222;-70
2021/01/09 02:34:19;;;;;;;7.75;5.93;;;2.60;1.00;;;;;;4946340;28;20228;-70
2021/01/09 02:36:46;;;;;;;8.07;6.43;;;2.70;1.00;;;;;;4942577;28;20256;-72
2021/01/09 02:39:14;;;;;;;6.50;5.22;;;2.70;99.90;;;;;;4948094;28;20221;-70
2021/01/09 02:41:47;;;;;;;8.98;6.30;;;2.70;99.90;;;;;;4949341;28;20291;-71
2021/01/09 02:44:14;;;;;;;7.07;6.20;;;2.60;99.90;;;;;;4948921;28;20268;-70
2021/01/09 02:46:41;;;;;;;8.18;5.75;;;2.60;1.00;;;;;;4943726;28;20202;-70
2021/01/09 02:49:09;;;;;;;8.98;6.78;;;2.70;1.00;;;;;;4954999;28;20204;-71
2021/01/09 02:51:36;;;;;;;6.80;6.10;;;2.70;1.00;;;;;;4953743;28;20215;-72
2021/01/09 02:54:04;;;;;;;11.13;7.40;;;2.60;1.00;;;;;;4943265;28;20234;-70
2021/01/09 02:56:31;;;;;;;9.07;6.35;;;2.60;99.90;;;;;;4948896;28;20233;-72
2021/01/09 02:58:59;;;;;;;9.70;6.53;;;2.60;99.90;;;;;;4947048;28;20257;-70
2021/01/09 03:01:27;;;;;;;9.25;7.38;;;2.50;99.90;;;;;;4952815;28;20226;-70
2021/01/09 03:03:56;;;;;;;8.45;6.38;;;2.40;99.90;;;;;;4949300;28;20311;-70
2021/01/09 03:06:24;;;;;;;8.73;6.95;;;2.30;99.90;;;;;;4950477;28;20304;-70
2021/01/09 03:08:51;;;;;;;7.68;5.68;;;2.30;99.90;;;;;;4953734;28;20229;-69
2021/01/09 03:11:18;;;;;;;8.88;6.93;;;2.30;99.90;;;;;;4950886;28;20223;-70
2021/01/09 03:13:46;;;;;;;9.10;6.68;;;2.30;99.90;;;;;;4947243;28;20764;-70
2021/01/09 03:16:15;;;;;;;10.45;7.00;;;2.30;99.90;;;;;;4951096;28;20940;-70
2021/01/09 03:18:42;;;;;;;9.88;6.38;;;2.40;99.90;;;;;;4945836;28;20215;-70
2021/01/09 03:21:09;;;;;;;9.63;6.63;;;2.30;1.00;;;;;;4942625;28;20215;-70
2021/01/09 03:23:36;;;;;;;7.80;6.07;;;2.30;1.00;;;;;;4951525;28;20239;-70
2021/01/09 03:26:03;;;;;;;8.00;6.20;;;2.30;99.90;;;;;;4945465;28;20217;-70
2021/01/09 03:28:31;;;;;;;10.10;6.85;;;2.30;99.90;;;;;;4947245;29;20247;-70
2021/01/09 03:30:58;;;;;;;9.05;6.55;;;2.30;1.00;;;;;;4942366;28;20856;-73
2021/01/09 03:33:29;;;;;;;7.30;6.15;;;2.40;99.90;;;;;;4945469;28;20260;-69
2021/01/09 03:35:56;;;;;;;9.77;6.18;;;2.50;99.90;;;;;;4952138;28;20229;-70
2021/01/09 03:38:23;;;;;;;7.13;6.25;;;2.50;38.20;;;;;;4951022;28;20223;-70
2021/01/09 03:40:50;;;;;;;6.45;5.40;;;2.50;1.00;;;;;;4951625;28;20209;-70
2021/01/09 03:43:17;;;;;;;10.98;7.10;;;2.60;13.10;;;;;;4950189;28;20235;-67
2021/01/09 03:45:44;;;;;;;6.45;5.45;;;2.60;1.00;;;;;;4951944;28;20312;-69
2021/01/09 03:48:12;;;;;;;8.45;6.55;;;2.60;1.00;;;;;;4946586;28;20214;-70
2021/01/09 03:50:41;;;;;;;8.80;6.50;;;2.50;1.00;;;;;;4944502;28;20225;-69
2021/01/09 03:53:08;;;;;;;8.38;5.60;;;2.60;99.90;;;;;;4948279;28;20281;-70
2021/01/09 03:55:35;;;;;;;8.90;7.15;;;2.60;99.90;;;;;;4940190;28;20713;-68
2021/01/09 03:58:03;;;;;;;12.45;6.55;;;2.60;99.90;;;;;;4953939;28;20225;-70
2021/01/09 04:00:30;;;;;;;9.38;6.78;;;2.50;99.90;;;;;;4951422;28;20242;-70
2021/01/09 04:02:57;;;;;;;8.63;7.15;;;2.50;99.90;;;;;;4948249;28;20230;-69
2021/01/09 04:05:24;;;;;;;8.95;5.90;;;2.50;99.90;;;;;;4954939;28;20214;-69
2021/01/09 04:07:52;;;;;;;9.82;6.65;;;2.50;1.00;;;;;;4953406;28;20218;-68
2021/01/09 04:10:19;;;;;;;9.60;6.28;;;2.60;1.00;;;;;;4952277;28;20232;-69
2021/01/09 04:12:47;;;;;;;11.25;7.88;;;2.60;42.60;;;;;;4948137;28;20218;-70
2021/01/09 04:15:14;;;;;;;7.70;6.07;;;2.60;1.00;;;;;;4950687;28;20363;-70
2021/01/09 04:17:42;;;;;;;7.68;6.68;;;2.60;1.00;;;;;;4952230;28;20210;-68
2021/01/09 04:20:10;;;;;;;9.60;6.45;;;2.60;1.00;;;;;;4943904;28;20214;-69
2021/01/09 04:22:37;;;;;;;7.22;5.75;;;2.70;1.00;;;;;;4947973;28;20282;-69
2021/01/09 04:25:07;;;;;;;10.13;6.80;;;2.70;99.90;;;;;;4951652;28;20204;-69
2021/01/09 04:27:34;;;;;;;7.55;6.00;;;2.70;99.90;;;;;;4955005;28;20224;-69
2021/01/09 04:30:01;;;;;;;8.52;7.20;;;2.60;99.90;;;;;;4966476;28;20739;-70
2021/01/09 04:32:29;;;;;;;9.13;6.97;;;2.50;1.00;;;;;;4948898;28;20210;-69
2021/01/09 04:34:57;;;;;;;9.35;7.35;;;2.50;99.90;;;;;;4953548;28;20723;-69
2021/01/09 04:37:25;;;;;;;9.65;6.78;;;2.40;99.90;;;;;;4947969;28;20218;-69
2021/01/09 04:39:52;;;;;;;10.88;7.70;;;2.50;99.90;;;;;;4956236;28;20270;-71
2021/01/09 04:42:20;;;;;;;11.93;7.95;;;2.50;99.90;;;;;;4964031;28;20238;-71
2021/01/09 04:44:47;;;;;;;14.35;8.85;;;2.50;99.90;;;;;;4955992;28;20230;-71
2021/01/09 04:47:15;;;;;;;10.60;7.93;;;2.30;99.90;;;;;;4948734;28;20683;-70
2021/01/09 04:49:43;;;;;;;10.85;6.90;;;2.30;1.00;;;;;;4952938;28;20225;-70
2021/01/09 04:52:10;;;;;;;9.65;7.00;;;2.40;34.30;;;;;;4954085;28;20213;-72
2021/01/09 04:54:39;;;;;;;8.52;7.28;;;2.20;1.00;;;;;;4960798;28;20245;-70
2021/01/09 04:57:06;;;;;;;8.30;7.07;;;2.10;99.90;;;;;;4958103;28;20226;-70
2021/01/09 04:59:38;;;;;;;9.43;7.57;;;2.20;99.90;;;;;;4949343;28;20227;-68
2021/01/09 05:02:05;;;;;;;10.85;7.00;;;2.40;51.80;;;;;;4941068;28;20290;-70
2021/01/09 05:04:33;;;;;;;10.93;7.38;;;2.40;99.90;;;;;;4944077;28;20234;-69
2021/01/09 05:07:00;;;;;;;10.57;7.30;;;2.40;30.10;;;;;;4959196;28;20208;-68
2021/01/09 05:09:27;;;;;;;11.38;7.53;;;2.20;99.90;;;;;;4949626;28;20753;-69
2021/01/09 05:11:57;;;;;;;8.68;7.07;;;2.00;99.90;;;;;;4968319;28;20272;-69
2021/01/09 05:14:27;;;;;;;9.73;7.03;;;2.20;99.90;;;;;;4949391;28;20292;-70
2021/01/09 05:16:57;;;;;;;9.60;7.20;;;2.40;1.00;;;;;;4952131;28;20235;-68
2021/01/09 05:19:28;;;;;;;10.20;7.70;;;2.40;99.90;;;;;;4948261;28;20628;-71
2021/01/09 05:21:57;;;;;;;8.57;7.40;;;2.40;1.00;;;;;;4948115;28;20253;-71
2021/01/09 05:24:26;;;;;;;12.27;8.00;;;2.50;99.90;;;;;;4950415;28;20261;-69
2021/01/09 05:26:53;;;;;;;8.68;7.07;;;2.50;34.40;;;;;;4949099;28;20379;-70
2021/01/09 05:29:22;;;;;;;10.65;7.35;;;2.50;1.00;;;;;;4957631;28;20296;-70
2021/01/09 05:31:49;;;;;;;11.98;8.85;;;2.50;99.90;;;;;;4947664;28;20301;-69
2021/01/09 05:34:18;;;;;;;10.32;8.15;;;2.60;34.30;;;;;;4944655;28;20320;-69
2021/01/09 05:36:45;;;;;;;12.63;8.50;;;2.60;99.90;;;;;;4947791;28;20709;-70
2021/01/09 05:39:12;;;;;;;11.10;7.75;;;2.50;1.00;;;;;;4951030;28;20215;-69
2021/01/09 05:41:41;;;;;;;10.13;8.48;;;2.50;99.90;;;;;;4947126;28;20728;-69
2021/01/09 05:44:11;;;;;;;12.93;9.38;;;2.60;1.00;;;;;;4950828;28;20238;-70
2021/01/09 05:46:40;;;;;;;10.35;8.90;;;2.60;99.90;;;;;;4952688;28;20246;-69
2021/01/09 05:49:09;;;;;;;12.95;9.50;;;2.70;99.90;;;;;;4950001;28;20291;-70
2021/01/09 05:51:39;;;;;;;11.85;9.95;;;2.70;99.90;;;;;;4947728;28;20209;-70
2021/01/09 05:54:07;;;;;;;12.85;8.68;;;2.70;99.90;;;;;;4950652;28;20753;-70
2021/01/09 05:56:39;;;;;;;13.15;9.63;;;2.70;99.90;;;;;;4957269;28;20780;-71
2021/01/09 05:59:07;;;;;;;13.27;10.45;;;2.70;1.00;;;;;;4964081;28;20211;-69
2021/01/09 06:01:36;;;;;;;12.30;9.52;;;2.70;5.20;;;;;;4939255;28;20228;-70
2021/01/09 06:04:06;;;;;;;14.88;10.07;;;2.70;99.90;;;;;;4947422;28;20241;-69
2021/01/09 06:06:58;;;;;;;15.30;10.70;;;2.70;99.90;;;;;;4960571;28;20219;-71
2021/01/09 06:09:32;;;;;;;15.52;11.27;;;2.70;99.90;;;;;;4944361;28;20651;-69
2021/01/09 06:12:05;;;;;;;18.65;12.30;;;2.70;99.90;;;;;;4943682;28;20222;-69
2021/01/09 06:14:35;;;;;;;17.42;12.48;;;2.70;99.90;;;;;;4945701;28;20281;-71
2021/01/09 06:17:03;;;;;;;17.13;11.95;;;2.70;1.00;;;;;;4943962;29;20229;-70
2021/01/09 06:19:31;;;;;;;15.93;11.45;;;2.60;1.00;;;;;;4946858;28;20232;-70
2021/01/09 06:22:01;;;;;;;19.35;11.65;;;2.50;1.00;;;;;;4944907;28;20293;-71
2021/01/09 06:24:29;;;;;;;16.02;12.63;;;2.40;99.90;;;;;;4949695;28;20234;-70
2021/01/09 06:27:00;;;;;;;15.45;11.23;;;2.40;1.00;;;;;;4945207;28;20216;-70
2021/01/09 06:29:29;;;;;;;19.10;12.32;;;2.50;1.00;;;;;;4949536;28;20221;-69
2021/01/09 06:31:58;;;;;;;18.55;11.52;;;2.50;99.90;;;;;;4946556;28;20301;-70
2021/01/09 06:34:27;;;;;;;20.63;13.13;;;2.60;99.90;;;;;;4943680;28;20226;-70
2021/01/09 06:36:56;;;;;;;17.33;12.65;;;2.60;99.90;;;;;;4950445;28;20226;-71
2021/01/09 06:39:26;;;;;;;18.65;12.73;;;2.60;99.90;;;;;;4945385;28;20887;-70
2021/01/09 06:42:04;;;;;;;17.90;13.25;;;2.60;99.90;;;;;;5077070;27;21129;-70
2021/01/09 06:44:31;;;;;;;16.80;11.35;;;2.60;99.90;;;;;;5064544;28;20227;-70
2021/01/09 06:47:00;;;;;;;17.58;12.30;;;2.70;99.90;;;;;;5060851;28;20212;-70
2021/01/09 06:49:28;;;;;;;20.17;12.18;;;2.70;99.90;;;;;;5072823;28;20303;-70
2021/01/09 06:51:57;;;;;;;19.38;12.77;;;2.70;99.90;;;;;;5067561;28;20216;-70
2021/01/09 06:54:27;;;;;;;17.30;11.27;;;2.60;99.90;;;;;;5059511;28;20313;-71
2021/01/09 06:57:19;;;;;;;17.98;12.15;;;2.60;1.00;;;;;;5071941;28;20226;-69
2021/01/09 06:59:48;;;;;;;15.57;11.65;;;2.60;1.00;;;;;;5062525;28;20667;-71
2021/01/09 07:02:23;;;;;;;17.40;11.88;;;2.50;1.00;;;;;;5061551;28;20210;-70
2021/01/09 07:04:55;;;;;;;20.40;13.52;;;2.50;1.00;;;;;;5061127;28;20231;-69
2021/01/09 07:07:36;;;;;;;19.52;11.98;;;2.60;1.00;;;;;;5053538;28;20890;-68
2021/01/09 07:10:22;;;;;;;21.45;12.82;;;2.60;1.00;;;;;;5047651;28;20233;-68
2021/01/09 07:12:56;;;;;;;20.45;14.18;;;2.60;1.00;;;;;;5058937;28;20223;-70
2021/01/09 07:15:25;;;;;;;20.60;13.90;;;2.50;99.90;;;;;;5059420;28;20223;-68
2021/01/09 07:17:55;;;;;;;21.23;13.35;;;2.50;99.90;;;;;;5052084;28;20430;-69
2021/01/09 07:20:24;;;;;;;19.02;12.68;;;2.60;99.90;;;;;;5057291;28;20223;-70
2021/01/09 07:22:57;;;;;;;20.50;13.18;;;2.50;99.90;;;;;;5064272;28;20232;-70
2021/01/09 07:25:32;;;;;;;19.27;12.07;;;2.50;99.90;;;;;;5053860;28;20222;-70
2021/01/09 07:28:05;;;;;;;20.55;13.15;;;2.40;99.90;;;;;;5057775;28;20211;-70
2021/01/09 07:30:33;;;;;;;19.65;11.88;;;2.40;99.90;;;;;;5061469;28;20539;-70
2021/01/09 07:33:01;;;;;;;17.50;12.50;;;2.50;99.90;;;;;;5069176;28;20222;-71
2021/01/09 07:35:30;;;;;;;16.63;12.38;;;2.40;99.90;;;;;;5059969;28;20677;-69
2021/01/09 07:38:00;;;;;;;18.73;11.48;;;2.40;99.90;;;;;;5062263;28;20209;-69
2021/01/09 07:40:31;;;;;;;17.50;12.27;;;2.50;99.90;;;;;;5059630;28;20326;-70
2021/01/09 07:42:58;;;;;;;20.52;13.55;;;2.50;99.90;;;;;;5048165;28;20323;-71
2021/01/09 07:45:32;;;;;;;21.50;13.20;;;2.50;99.90;;;;;;5051087;28;20204;-72
2021/01/09 07:48:00;;;;;;;19.05;12.52;;;2.30;99.90;;;;;;5069169;28;20229;-71
2021/01/09 07:50:42;;;;;;;23.45;13.32;;;2.30;99.90;;;;;;5056184;28;20197;-71
2021/01/09 07:53:12;;;;;;;18.13;12.25;;;2.40;99.90;;;;;;5064049;28;20222;-70
2021/01/09 07:55:45;;;;;;;23.08;14.25;;;2.50;99.90;;;;;;5048039;28;20204;-70
2021/01/09 07:58:12;;;;;;;22.55;13.13;;;2.50;99.90;;;;;;5047853;28;20226;-70
2021/01/09 08:00:42;;;;;;;21.00;13.02;;;2.50;99.90;;;;;;5035306;28;20228;-71
2021/01/09 08:03:10;;;;;;;25.63;13.30;;;2.40;99.90;;;;;;5039986;28;20226;-72
2021/01/09 08:05:37;;;;;;;25.70;14.65;;;2.50;99.90;;;;;;5036950;28;20295;-70
2021/01/09 08:08:06;;;;;;;21.73;14.00;;;2.50;99.90;;;;;;5044490;28;20204;-72
2021/01/09 08:10:34;;;;;;;23.85;13.95;;;2.50;1.00;;;;;;5042699;28;20259;-71
2021/01/09 08:13:05;;;;;;;20.80;13.20;;;2.50;99.90;;;;;;5045983;28;20296;-69
2021/01/09 08:15:33;;;;;;;21.17;13.90;;;2.60;99.90;;;;;;5043066;28;20432;-71
2021/01/09 08:18:04;;;;;;;20.35;12.73;;;2.60;99.90;;;;;;5051220;28;20209;-73
2021/01/09 08:20:31;;;;;;;25.45;13.70;;;2.70;99.90;;;;;;5048648;28;20231;-71
2021/01/09 08:23:01;;;;;;;19.73;12.95;;;2.70;99.90;;;;;;5040243;28;20938;-70
2021/01/09 08:25:30;;;;;;;25.73;14.90;;;2.70;99.90;;;;;;5054132;28;20288;-70
2021/01/09 08:27:58;;;;;;;20.10;13.32;;;2.70;99.90;;;;;;5044653;28;20207;-70
2021/01/09 08:30:26;;;;;;;19.15;13.18;;;2.70;99.90;;;;;;5053679;28;20193;-71
2021/01/09 08:33:06;;;;;;;22.20;12.88;;;2.70;99.90;;;;;;5046036;28;20233;-72
2021/01/09 08:35:34;;;;;;;21.88;13.15;;;2.60;99.90;;;;;;5050090;28;20212;-72
2021/01/09 08:38:02;;;;;;;20.45;12.40;;;2.60;99.90;;;;;;5041915;28;20212;-72
2021/01/09 08:40:31;;;;;;;21.42;14.32;;;2.60;99.90;;;;;;5039548;28;20267;-71
2021/01/09 08:43:01;;;;;;;23.67;14.65;;;2.60;99.90;;;;;;5049588;28;20226;-72
2021/01/09 08:45:43;;;;;;;26.17;13.77;;;2.60;99.90;;;;;;5040834;28;20738;-72
2021/01/09 08:48:16;;;;;;;23.67;17.40;;;2.60;99.90;;;;;;5051162;28;20470;-73
2021/01/09 08:51:01;;;;;;;23.63;14.82;;;2.50;99.90;;;;;;5042622;28;20572;-72
2021/01/09 08:53:35;;;;;;;23.58;13.73;;;2.60;99.90;;;;;;5046191;28;20289;-75
2021/01/09 08:56:05;;;;;;;24.55;15.90;;;2.60;99.90;;;;;;5046559;28;21080;-75
2021/01/09 08:58:35;;;;;;;22.10;13.38;;;2.60;99.90;;;;;;5045523;28;20206;-78
2021/01/09 09:01:05;;;;;;;24.08;16.55;;;2.60;99.90;;;;;;5038740;28;20455;-76
2021/01/09 09:03:36;;;;;;;21.27;16.58;;;2.60;99.90;;;;;;5036002;28;20547;-74
2021/01/09 09:06:07;;;;;;;18.52;12.45;;;2.60;99.90;;;;;;5032961;28;20219;-71
2021/01/09 09:08:35;;;;;;;18.90;11.68;;;2.80;99.90;;;;;;5035656;28;20213;-76
2021/01/09 09:11:04;;;;;;;18.83;11.40;;;2.80;99.90;;;;;;5031967;28;20211;-71
2021/01/09 09:13:31;;;;;;;19.65;13.32;;;2.80;99.90;;;;;;5030967;28;20244;-72
2021/01/09 09:16:14;;;;;;;20.05;12.95;;;2.90;99.90;;;;;;5032615;28;20280;-77
2021/01/09 09:18:42;;;;;;;15.10;9.93;;;3.00;99.90;;;;;;5034191;28;20585;-70
2021/01/09 09:21:10;;;;;;;18.73;11.40;;;2.90;1.00;;;;;;5030674;28;20227;-72
2021/01/09 09:23:37;;;;;;;17.17;11.10;;;2.90;1.00;;;;;;5038499;28;20219;-77
2021/01/09 09:26:11;;;;;;;15.07;10.45;;;2.90;1.00;;;;;;5035014;28;20212;-75
2021/01/09 09:28:45;;;;;;;15.95;10.55;;;3.00;1.00;;;;;;5034559;28;20214;-74
2021/01/09 09:31:25;;;;;;;17.15;11.18;;;3.00;99.90;;;;;;5038160;28;20623;-72
2021/01/09 09:34:04;;;;;;;15.23;11.18;;;3.00;99.90;;;;;;5050860;28;20229;-74
2021/01/09 09:36:35;;;;;;;16.52;10.57;;;3.00;99.90;;;;;;5046956;28;20528;-71
2021/01/09 09:39:16;;;;;;;13.18;9.82;;;3.00;99.90;;;;;;5045494;28;20198;-73
2021/01/09 09:41:55;;;;;;;17.08;10.40;;;2.90;99.90;;;;;;5044918;28;20223;-75
2021/01/09 09:44:34;;;;;;;15.98;11.00;;;3.00;99.90;;;;;;5047458;28;20245;-75
2021/01/09 09:47:02;;;;;;;14.27;10.57;;;3.10;1.00;;;;;;5044360;28;20257;-74
2021/01/09 09:49:32;;;;;;;15.77;11.02;;;3.20;99.90;;;;;;5047686;28;20214;-73
2021/01/09 09:52:00;;;;;;;18.17;11.48;;;3.30;1.00;;;;;;5046181;28;20204;-75
2021/01/09 09:54:29;;;;;;;17.73;12.38;;;3.40;1.00;;;;;;5061016;28;20219;-74
2021/01/09 09:56:56;;;;;;;17.42;12.35;;;3.40;1.00;;;;;;5050769;28;20202;-74
2021/01/09 09:59:29;;;;;;;20.13;13.38;;;3.40;1.00;;;;;;5044667;28;20215;-74
2021/01/09 10:02:01;;;;;;;19.75;13.90;;;3.20;1.00;;;;;;5041869;28;20475;-72
2021/01/09 10:04:28;;;;;;;24.67;14.68;;;3.20;99.90;;;;;;5036439;28;20247;-71
2021/01/09 10:06:56;;;;;;;19.65;12.68;;;3.40;99.90;;;;;;5051867;28;20207;-71
2021/01/09 10:09:25;;;;;;;13.25;9.40;;;3.50;99.90;;;;;;5041835;28;20235;-71
2021/01/09 10:11:53;;;;;;;15.43;10.60;;;3.50;1.00;;;;;;5048202;28;20200;-75
2021/01/09 10:14:23;;;;;;;14.90;10.45;;;3.60;1.00;;;;;;5051504;28;20224;-73
2021/01/09 10:16:50;;;;;;;14.38;9.82;;;3.60;1.00;;;;;;5045890;28;20237;-73
2021/01/09 10:19:18;;;;;;;14.13;10.52;;;3.60;99.90;;;;;;5046786;28;20260;-76
2021/01/09 10:21:46;;;;;;;15.30;10.93;;;3.60;64.50;;;;;;5049842;28;20215;-73
2021/01/09 10:24:14;;;;;;;13.90;9.57;;;3.60;99.90;;;;;;5046334;28;20273;-72
2021/01/09 10:26:41;;;;;;;15.90;10.98;;;3.70;1.00;;;;;;5048091;28;20238;-73
2021/01/09 10:29:14;;;;;;;14.02;9.80;;;3.70;1.00;;;;;;5051319;28;20212;-73
2021/01/09 10:31:41;;;;;;;17.58;10.85;;;3.70;99.90;;;;;;5047542;28;20206;-73
2021/01/09 10:34:09;;;;;;;15.18;9.25;;;3.70;99.90;;;;;;5051241;28;20281;-73
2021/01/09 10:36:37;;;;;;;14.20;10.45;;;3.70;99.90;;;;;;5052781;28;20210;-74
2021/01/09 10:39:06;;;;;;;12.95;10.60;;;3.70;99.90;;;;;;5047313;28;20227;-74
2021/01/09 10:41:35;;;;;;;14.52;9.88;;;3.70;99.90;;;;;;5050419;28;20274;-74
2021/01/09 10:44:04;;;;;;;13.65;8.55;;;3.90;99.90;;;;;;5045505;28;20254;-73
2021/01/09 10:46:32;;;;;;;16.15;11.50;;;3.90;1.00;;;;;;5051232;28;20590;-74
2021/01/09 10:49:00;;;;;;;11.57;9.40;;;3.90;99.90;;;;;;5051558;28;20207;-73
2021/01/09 10:51:29;;;;;;;15.65;9.95;;;3.90;99.90;;;;;;5044402;28;20204;-75
2021/01/09 10:53:56;;;;;;;13.63;8.30;;;3.90;99.90;;;;;;5040102;28;20223;-73
2021/01/09 10:56:23;;;;;;;11.80;8.55;;;3.90;74.40;;;;;;5051074;28;20756;-73
2021/01/09 10:58:51;;;;;;;10.85;8.13;;;3.90;1.00;;;;;;5046352;28;20215;-73
2021/01/09 11:01:21;;;;;;;20.83;11.23;;;4.00;1.00;;;;;;5042889;28;20216;-73
2021/01/09 11:03:49;;;;;;;12.80;9.52;;;4.00;1.00;;;;;;5046778;28;22053;-73
2021/01/09 11:06:22;;;;;;;11.77;8.43;;;4.20;1.00;;;;;;5050479;28;20260;-74
2021/01/09 11:08:49;;;;;;;12.13;7.25;;;4.50;99.90;;;;;;5041777;28;20219;-73
2021/01/09 11:11:17;;;;;;;12.15;8.25;;;4.70;99.90;;;;;;5032182;28;20294;-77
2021/01/09 11:13:44;;;;;;;11.32;7.90;;;4.80;99.90;;;;;;5047872;28;20299;-72
2021/01/09 11:16:12;;;;;;;9.52;7.15;;;5.00;99.90;;;;;;5039029;28;20227;-72
2021/01/09 11:18:41;;;;;;;11.30;7.47;;;5.30;13.00;;;;;;5042553;28;20223;-73
2021/01/09 11:21:08;;;;;;;10.85;7.20;;;5.50;1.00;;;;;;5028975;28;20224;-76
2021/01/09 11:23:35;;;;;;;12.20;6.55;;;5.50;1.00;;;;;;5029534;28;22493;-74
2021/01/09 11:26:02;;;;;;;9.43;7.22;;;5.70;1.00;;;;;;5027960;28;20243;-74
2021/01/09 11:28:30;;;;;;;9.00;6.20;;;6.30;1.00;;;;;;5032682;28;20202;-76
2021/01/09 11:30:58;;;;;;;9.83;7.07;;;7.00;99.90;;;;;;5027392;28;20210;-75
2021/01/09 11:33:28;;;;;;;8.73;7.00;;;7.20;99.90;;;;;;5039631;28;20508;-76
2021/01/09 11:35:55;;;;;;;9.27;7.23;;;7.40;99.90;;;;;;5036112;28;20466;-74
2021/01/09 11:38:22;;;;;;;9.43;6.73;;;7.50;99.90;;;;;;5045432;28;20475;-75
2021/01/09 11:40:51;;;;;;;8.40;6.40;;;7.70;99.90;;;;;;5033162;28;20509;-75
2021/01/09 11:43:18;;;;;;;7.83;5.83;;;7.60;99.90;;;;;;5037311;28;20480;-73
2021/01/09 11:45:45;;;;;;;7.60;6.23;;;7.60;99.90;;;;;;5036124;28;20469;-74
2021/01/09 11:48:12;;;;;;;5.40;4.90;;;7.40;99.90;;;;;;5032394;28;21007;-74
2021/01/09 11:50:43;;;;;;;9.20;6.00;;;7.70;99.90;;;;;;5034807;28;20549;-74
2021/01/09 11:53:30;;;;;;;8.03;6.20;;;8.30;99.90;;;;;;5044853;28;20483;-74
2021/01/09 11:55:58;;;;;;;8.80;6.40;;;8.60;99.90;;;;;;5032769;28;20459;-74
2021/01/09 11:58:25;;;;;;;10.87;7.30;;;8.40;99.90;;;;;;5039610;28;20460;-74
2021/01/09 12:00:52;;;;;;;9.73;7.13;;;8.00;99.90;;;;;;5037094;28;21023;-75
2021/01/09 12:03:19;;;;;;;9.43;7.10;;;7.50;99.90;;;;;;5031477;28;21091;-76
2021/01/09 12:05:48;;;;;;;9.00;7.40;;;7.00;99.90;;;;;;5035743;28;20785;-74
2021/01/09 12:08:15;;;;;;;8.40;6.73;;;6.80;99.90;;;;;;5030428;28;20473;-73
2021/01/09 12:10:43;;;;;;;8.53;6.83;;;6.90;99.90;;;;;;5035668;28;20462;-74
2021/01/09 12:13:10;;;;;;;8.80;7.13;;;6.80;99.90;;;;;;5029937;28;20494;-75
2021/01/09 12:15:38;;;;;;;7.00;5.93;;;7.00;99.90;;;;;;5031767;28;20461;-73
2021/01/09 12:18:05;;;;;;;6.70;6.00;;;7.40;99.90;;;;;;5030465;28;20466;-75
2021/01/09 12:20:34;;;;;;;9.73;6.90;;;7.50;99.90;;;;;;5031025;28;20554;-74
2021/01/09 12:23:03;;;;;;;8.07;6.43;;;8.00;99.90;;;;;;5047527;28;21204;-73
2021/01/09 12:25:30;;;;;;;7.00;6.13;;;8.40;99.90;;;;;;5031156;28;20462;-74
2021/01/09 12:27:57;;;;;;;8.57;6.77;;;8.70;99.90;;;;;;5031385;28;20555;-74
2021/01/09 12:30:24;;;;;;;8.07;6.30;;;9.20;99.90;;;;;;5030522;28;20476;-74
2021/01/09 12:32:51;;;;;;;8.57;6.90;;;9.30;99.90;;;;;;5030867;28;20500;-73
2021/01/09 12:35:19;;;;;;;6.97;6.10;;;9.10;99.90;;;;;;5035585;28;20522;-75
2021/01/09 12:37:46;;;;;;;8.67;7.27;;;8.80;99.90;;;;;;5042574;28;20456;-76
2021/01/09 12:40:14;;;;;;;7.73;6.80;;;8.30;99.90;;;;;;5039221;28;20533;-74
2021/01/09 12:42:41;;;;;;;6.87;6.03;;;7.70;99.90;;;;;;5044709;28;20487;-74
2021/01/09 12:45:10;;;;;;;10.87;6.77;;;7.10;99.90;;;;;;5052721;28;21001;-74
2021/01/09 12:47:38;;;;;;;8.43;6.57;;;6.60;99.90;;;;;;5056012;28;20462;-76
2021/01/09 12:50:06;;;;;;;7.37;6.67;;;6.20;99.90;;;;;;5049356;28;20459;-74
2021/01/09 12:52:33;;;;;;;8.30;6.90;;;5.70;99.90;;;;;;5057075;28;20459;-75
2021/01/09 12:55:00;;;;;;;6.60;5.57;;;5.30;99.90;;;;;;5056779;28;20461;-75
2021/01/09 12:57:28;;;;;;;9.95;6.60;;;5.00;99.90;;;;;;5059552;28;20229;-75
2021/01/09 12:59:56;;;;;;;8.15;6.32;;;4.80;99.90;;;;;;5049946;28;20200;-74